sensor_id;sensor_type;location;lat;lon;timestamp;temperature;humidity
41668;DHT22;27356;50.920;5.350;2023-02-01T00:01:29;6.20;99.90
41668;DHT22;27356;50.920;5.350;2023-02-01T00:03:55;6.30;99.90
41668;DHT22;27356;50.920;5.350;2023-02-01T00:06:21;6.30;99.90
41668;DHT22;27356;50.920;5.350;2023-02-01T00:08:46;6.40;99.90
41668;DHT22;27356;50.920;5.350;2023-02-01T00:11:12;6.40;99.90
41668;DHT22;27356;50.920;5.350;2023-02-01T00:13:41;6.40;99.90
41668;DHT22;27356;50.920;5.350;2023-02-01T00:16:15;6.30;99.90
41668;DHT22;27356;50.920;5.350;2023-02-01T00:18:45;6.30;99.90
41668;DHT22;27356;50.920;5.350;2023-02-01T00:21:12;6.40;99.90
41668;DHT22;27356;50.920;5.350;2023-02-01T00:23:38;6.40;99.90
41668;DHT22;27356;50.920;5.350;2023-02-01T00:26:06;6.30;99.90
41668;DHT22;27356;50.920;5.350;2023-02-01T00:28:32;6.30;99.90
41668;DHT22;27356;50.920;5.350;2023-02-01T00:31:02;6.40;99.90
41668;DHT22;27356;50.920;5.350;2023-02-01T00:33:29;6.50;99.90
41668;DHT22;27356;50.920;5.350;2023-02-01T00:35:58;6.50;99.90
41668;DHT22;27356;50.920;5.350;2023-02-01T00:38:26;6.50;99.90
41668;DHT22;27356;50.920;5.350;2023-02-01T00:40:51;6.50;99.90
41668;DHT22;27356;50.920;5.350;2023-02-01T00:43:17;6.50;99.90
41668;DHT22;27356;50.920;5.350;2023-02-01T00:45:43;6.60;99.90
41668;DHT22;27356;50.920;5.350;2023-02-01T00:48:08;6.50;99.90
41668;DHT22;27356;50.920;5.350;2023-02-01T00:50:34;6.60;99.90
41668;DHT22;27356;50.920;5.350;2023-02-01T00:52:59;6.60;99.90
41668;DHT22;27356;50.920;5.350;2023-02-01T00:55:25;6.50;99.90
41668;DHT22;27356;50.920;5.350;2023-02-01T00:57:51;6.60;99.90
41668;DHT22;27356;50.920;5.350;2023-02-01T01:00:17;6.60;99.90
41668;DHT22;27356;50.920;5.350;2023-02-01T01:02:42;6.60;99.90
41668;DHT22;27356;50.920;5.350;2023-02-01T01:05:08;6.80;99.90
41668;DHT22;27356;50.920;5.350;2023-02-01T01:07:34;6.80;99.90
41668;DHT22;27356;50.920;5.350;2023-02-01T01:09:59;6.80;99.90
41668;DHT22;27356;50.920;5.350;2023-02-01T01:12:26;6.70;99.90
41668;DHT22;27356;50.920;5.350;2023-02-01T01:14:51;6.70;99.90
41668;DHT22;27356;50.920;5.350;2023-02-01T01:17:17;6.70;99.90
41668;DHT22;27356;50.920;5.350;2023-02-01T01:19:43;6.80;99.90
41668;DHT22;27356;50.920;5.350;2023-02-01T01:22:08;6.70;99.90
41668;DHT22;27356;50.920;5.350;2023-02-01T01:24:34;6.70;99.90
41668;DHT22;27356;50.920;5.350;2023-02-01T01:27:00;6.70;99.90
41668;DHT22;27356;50.920;5.350;2023-02-01T01:29:25;6.70;99.90
41668;DHT22;27356;50.920;5.350;2023-02-01T01:31:51;6.60;99.90
41668;DHT22;27356;50.920;5.350;2023-02-01T01:34:17;6.50;99.90
41668;DHT22;27356;50.920;5.350;2023-02-01T01:36:42;6.60;99.90
41668;DHT22;27356;50.920;5.350;2023-02-01T01:39:08;6.60;99.90
41668;DHT22;27356;50.920;5.350;2023-02-01T01:41:34;6.70;99.90
41668;DHT22;27356;50.920;5.350;2023-02-01T01:44:00;6.80;99.90
41668;DHT22;27356;50.920;5.350;2023-02-01T01:46:37;6.80;99.90
41668;DHT22;27356;50.920;5.350;2023-02-01T01:51:33;6.90;99.90
41668;DHT22;27356;50.920;5.350;2023-02-01T01:54:03;7.00;99.90
41668;DHT22;27356;50.920;5.350;2023-02-01T01:56:31;6.80;99.90
41668;DHT22;27356;50.920;5.350;2023-02-01T01:58:59;6.70;99.90
41668;DHT22;27356;50.920;5.350;2023-02-01T02:01:25;6.60;99.90
41668;DHT22;27356;50.920;5.350;2023-02-01T02:03:51;6.60;99.90
41668;DHT22;27356;50.920;5.350;2023-02-01T02:08:49;6.60;99.90
41668;DHT22;27356;50.920;5.350;2023-02-01T02:11:16;6.70;99.90
41668;DHT22;27356;50.920;5.350;2023-02-01T02:13:44;6.70;99.90
41668;DHT22;27356;50.920;5.350;2023-02-01T02:24:43;6.50;99.90
41668;DHT22;27356;50.920;5.350;2023-02-01T02:27:25;6.50;99.90
41668;DHT22;27356;50.920;5.350;2023-02-01T02:30:15;6.60;99.90
41668;DHT22;27356;50.920;5.350;2023-02-01T02:35:47;6.60;99.90
41668;DHT22;27356;50.920;5.350;2023-02-01T02:47:26;6.70;99.90
41668;DHT22;27356;50.920;5.350;2023-02-01T02:52:51;6.60;99.90
41668;DHT22;27356;50.920;5.350;2023-02-01T02:55:38;6.70;99.90
41668;DHT22;27356;50.920;5.350;2023-02-01T02:58:07;6.50;99.90
41668;DHT22;27356;50.920;5.350;2023-02-01T03:00:54;6.60;99.90
41668;DHT22;27356;50.920;5.350;2023-02-01T03:03:41;6.70;99.90
41668;DHT22;27356;50.920;5.350;2023-02-01T03:06:26;6.60;99.90
41668;DHT22;27356;50.920;5.350;2023-02-01T03:08:54;6.70;99.90
41668;DHT22;27356;50.920;5.350;2023-02-01T03:11:23;6.60;99.90
41668;DHT22;27356;50.920;5.350;2023-02-01T03:14:11;6.40;99.90
41668;DHT22;27356;50.920;5.350;2023-02-01T03:16:53;6.30;99.90
41668;DHT22;27356;50.920;5.350;2023-02-01T03:19:23;6.30;99.90
41668;DHT22;27356;50.920;5.350;2023-02-01T03:24:25;6.10;99.90
41668;DHT22;27356;50.920;5.350;2023-02-01T03:30:02;6.20;99.90
41668;DHT22;27356;50.920;5.350;2023-02-01T03:32:31;6.20;99.90
41668;DHT22;27356;50.920;5.350;2023-02-01T03:35:25;6.10;99.90
41668;DHT22;27356;50.920;5.350;2023-02-01T03:38:01;5.90;99.90
41668;DHT22;27356;50.920;5.350;2023-02-01T03:40:32;6.00;99.90
41668;DHT22;27356;50.920;5.350;2023-02-01T03:42:59;5.90;99.90
41668;DHT22;27356;50.920;5.350;2023-02-01T03:45:33;6.00;99.90
41668;DHT22;27356;50.920;5.350;2023-02-01T03:48:01;5.90;99.90
41668;DHT22;27356;50.920;5.350;2023-02-01T03:50:28;5.90;99.90
41668;DHT22;27356;50.920;5.350;2023-02-01T03:53:02;5.80;99.90
41668;DHT22;27356;50.920;5.350;2023-02-01T03:55:30;5.70;99.90
41668;DHT22;27356;50.920;5.350;2023-02-01T03:58:16;5.70;99.90
41668;DHT22;27356;50.920;5.350;2023-02-01T04:00:55;5.70;99.90
41668;DHT22;27356;50.920;5.350;2023-02-01T04:03:22;5.70;99.90
41668;DHT22;27356;50.920;5.350;2023-02-01T04:05:52;5.70;99.90
41668;DHT22;27356;50.920;5.350;2023-02-01T04:08:19;5.60;99.90
41668;DHT22;27356;50.920;5.350;2023-02-01T04:10:45;5.60;99.90
41668;DHT22;27356;50.920;5.350;2023-02-01T04:13:11;5.60;99.90
41668;DHT22;27356;50.920;5.350;2023-02-01T04:15:37;5.60;99.90
41668;DHT22;27356;50.920;5.350;2023-02-01T04:18:02;5.50;99.90
41668;DHT22;27356;50.920;5.350;2023-02-01T04:20:28;5.50;99.90
41668;DHT22;27356;50.920;5.350;2023-02-01T04:22:54;5.50;99.90
41668;DHT22;27356;50.920;5.350;2023-02-01T04:25:20;5.50;99.90
41668;DHT22;27356;50.920;5.350;2023-02-01T04:27:46;5.60;99.90
41668;DHT22;27356;50.920;5.350;2023-02-01T04:30:12;5.60;99.90
41668;DHT22;27356;50.920;5.350;2023-02-01T04:32:38;5.70;99.90
41668;DHT22;27356;50.920;5.350;2023-02-01T04:35:04;5.60;99.90
41668;DHT22;27356;50.920;5.350;2023-02-01T04:37:30;5.60;99.90
41668;DHT22;27356;50.920;5.350;2023-02-01T04:39:56;5.60;99.90
41668;DHT22;27356;50.920;5.350;2023-02-01T04:42:22;5.70;99.90
41668;DHT22;27356;50.920;5.350;2023-02-01T04:44:47;5.70;99.90
41668;DHT22;27356;50.920;5.350;2023-02-01T04:47:13;5.60;99.90
41668;DHT22;27356;50.920;5.350;2023-02-01T04:49:41;5.60;99.90
41668;DHT22;27356;50.920;5.350;2023-02-01T04:52:06;5.50;99.90
41668;DHT22;27356;50.920;5.350;2023-02-01T04:54:32;5.50;99.90
41668;DHT22;27356;50.920;5.350;2023-02-01T04:56:58;5.40;99.90
41668;DHT22;27356;50.920;5.350;2023-02-01T04:59:24;5.30;99.90
41668;DHT22;27356;50.920;5.350;2023-02-01T05:01:50;5.40;99.90
41668;DHT22;27356;50.920;5.350;2023-02-01T05:04:16;5.40;99.90
41668;DHT22;27356;50.920;5.350;2023-02-01T05:06:44;5.30;99.90
41668;DHT22;27356;50.920;5.350;2023-02-01T05:09:10;5.40;99.90
41668;DHT22;27356;50.920;5.350;2023-02-01T05:11:35;5.40;99.90
41668;DHT22;27356;50.920;5.350;2023-02-01T05:14:19;5.50;99.90
41668;DHT22;27356;50.920;5.350;2023-02-01T05:16:45;5.60;99.90
41668;DHT22;27356;50.920;5.350;2023-02-01T05:19:11;5.50;99.90
41668;DHT22;27356;50.920;5.350;2023-02-01T05:21:36;5.40;99.90
41668;DHT22;27356;50.920;5.350;2023-02-01T05:24:02;5.40;99.90
41668;DHT22;27356;50.920;5.350;2023-02-01T05:26:46;5.40;99.90
41668;DHT22;27356;50.920;5.350;2023-02-01T05:29:12;5.40;99.90
41668;DHT22;27356;50.920;5.350;2023-02-01T05:31:39;5.30;99.90
41668;DHT22;27356;50.920;5.350;2023-02-01T05:34:05;5.30;99.90
41668;DHT22;27356;50.920;5.350;2023-02-01T05:36:31;5.30;99.90
41668;DHT22;27356;50.920;5.350;2023-02-01T05:38:57;5.20;99.90
41668;DHT22;27356;50.920;5.350;2023-02-01T05:41:22;5.10;99.90
41668;DHT22;27356;50.920;5.350;2023-02-01T05:43:48;5.10;99.90
41668;DHT22;27356;50.920;5.350;2023-02-01T05:46:14;5.10;99.90
41668;DHT22;27356;50.920;5.350;2023-02-01T05:48:40;5.10;99.90
41668;DHT22;27356;50.920;5.350;2023-02-01T05:51:07;5.10;99.90
41668;DHT22;27356;50.920;5.350;2023-02-01T05:53:33;5.00;99.90
41668;DHT22;27356;50.920;5.350;2023-02-01T05:55:58;5.00;99.90
41668;DHT22;27356;50.920;5.350;2023-02-01T05:58:24;5.10;99.90
41668;DHT22;27356;50.920;5.350;2023-02-01T06:00:50;5.00;99.90
41668;DHT22;27356;50.920;5.350;2023-02-01T06:03:15;5.00;99.90
41668;DHT22;27356;50.920;5.350;2023-02-01T06:05:44;5.00;99.90
41668;DHT22;27356;50.920;5.350;2023-02-01T06:08:10;4.90;99.90
41668;DHT22;27356;50.920;5.350;2023-02-01T06:10:36;4.90;99.90
41668;DHT22;27356;50.920;5.350;2023-02-01T06:13:02;4.90;99.90
41668;DHT22;27356;50.920;5.350;2023-02-01T06:15:28;4.90;99.90
41668;DHT22;27356;50.920;5.350;2023-02-01T06:17:54;4.70;99.90
41668;DHT22;27356;50.920;5.350;2023-02-01T06:20:20;4.80;99.90
41668;DHT22;27356;50.920;5.350;2023-02-01T06:22:46;4.80;99.90
41668;DHT22;27356;50.920;5.350;2023-02-01T06:25:12;4.70;99.90
41668;DHT22;27356;50.920;5.350;2023-02-01T06:27:38;4.60;99.90
41668;DHT22;27356;50.920;5.350;2023-02-01T06:30:05;4.60;99.90
41668;DHT22;27356;50.920;5.350;2023-02-01T06:32:32;4.60;99.90
41668;DHT22;27356;50.920;5.350;2023-02-01T06:34:57;4.50;99.90
41668;DHT22;27356;50.920;5.350;2023-02-01T06:37:24;4.60;99.90
41668;DHT22;27356;50.920;5.350;2023-02-01T06:39:51;4.60;99.90
41668;DHT22;27356;50.920;5.350;2023-02-01T06:42:16;4.70;99.90
41668;DHT22;27356;50.920;5.350;2023-02-01T06:44:42;4.60;99.90
41668;DHT22;27356;50.920;5.350;2023-02-01T06:47:08;4.60;99.90
41668;DHT22;27356;50.920;5.350;2023-02-01T06:49:34;4.60;99.90
41668;DHT22;27356;50.920;5.350;2023-02-01T06:52:03;4.70;99.90
41668;DHT22;27356;50.920;5.350;2023-02-01T06:54:29;4.60;99.90
41668;DHT22;27356;50.920;5.350;2023-02-01T06:56:57;4.60;99.90
41668;DHT22;27356;50.920;5.350;2023-02-01T06:59:23;4.60;99.90
41668;DHT22;27356;50.920;5.350;2023-02-01T07:01:49;4.60;99.90
41668;DHT22;27356;50.920;5.350;2023-02-01T07:04:15;4.60;99.90
41668;DHT22;27356;50.920;5.350;2023-02-01T07:06:41;4.60;99.90
41668;DHT22;27356;50.920;5.350;2023-02-01T07:09:07;4.60;99.90
41668;DHT22;27356;50.920;5.350;2023-02-01T07:11:33;4.60;99.90
41668;DHT22;27356;50.920;5.350;2023-02-01T07:13:59;4.60;99.90
41668;DHT22;27356;50.920;5.350;2023-02-01T07:16:25;4.60;99.90
41668;DHT22;27356;50.920;5.350;2023-02-01T07:18:52;4.60;99.90
41668;DHT22;27356;50.920;5.350;2023-02-01T07:21:18;4.60;99.90
41668;DHT22;27356;50.920;5.350;2023-02-01T07:23:44;4.60;99.90
41668;DHT22;27356;50.920;5.350;2023-02-01T07:26:12;4.70;99.90
41668;DHT22;27356;50.920;5.350;2023-02-01T07:28:39;4.60;99.90
41668;DHT22;27356;50.920;5.350;2023-02-01T07:31:11;4.70;99.90
41668;DHT22;27356;50.920;5.350;2023-02-01T07:33:41;4.70;99.90
41668;DHT22;27356;50.920;5.350;2023-02-01T07:36:10;4.70;99.90
41668;DHT22;27356;50.920;5.350;2023-02-01T07:38:36;4.70;99.90
41668;DHT22;27356;50.920;5.350;2023-02-01T07:41:04;4.70;99.90
41668;DHT22;27356;50.920;5.350;2023-02-01T07:43:30;4.70;99.90
41668;DHT22;27356;50.920;5.350;2023-02-01T07:45:56;4.70;99.90
41668;DHT22;27356;50.920;5.350;2023-02-01T07:48:24;4.90;99.90
41668;DHT22;27356;50.920;5.350;2023-02-01T07:51:04;5.00;99.90
41668;DHT22;27356;50.920;5.350;2023-02-01T07:53:31;4.90;99.90
41668;DHT22;27356;50.920;5.350;2023-02-01T07:55:57;4.80;99.90
41668;DHT22;27356;50.920;5.350;2023-02-01T07:58:24;4.80;99.90
41668;DHT22;27356;50.920;5.350;2023-02-01T08:00:49;4.80;99.90
41668;DHT22;27356;50.920;5.350;2023-02-01T08:03:34;4.90;99.90
41668;DHT22;27356;50.920;5.350;2023-02-01T08:06:00;5.00;99.90
41668;DHT22;27356;50.920;5.350;2023-02-01T08:08:26;4.90;99.90
41668;DHT22;27356;50.920;5.350;2023-02-01T08:10:57;4.80;99.90
41668;DHT22;27356;50.920;5.350;2023-02-01T08:13:23;4.90;99.90
41668;DHT22;27356;50.920;5.350;2023-02-01T08:15:48;4.90;99.90
41668;DHT22;27356;50.920;5.350;2023-02-01T08:18:14;4.90;99.90
41668;DHT22;27356;50.920;5.350;2023-02-01T08:20:41;5.00;99.90
41668;DHT22;27356;50.920;5.350;2023-02-01T08:23:09;5.10;99.90
41668;DHT22;27356;50.920;5.350;2023-02-01T08:25:35;5.20;99.90
41668;DHT22;27356;50.920;5.350;2023-02-01T08:28:02;5.30;99.90
41668;DHT22;27356;50.920;5.350;2023-02-01T08:30:28;5.40;99.90
41668;DHT22;27356;50.920;5.350;2023-02-01T08:32:54;5.60;99.90
41668;DHT22;27356;50.920;5.350;2023-02-01T08:35:19;5.80;99.90
41668;DHT22;27356;50.920;5.350;2023-02-01T08:37:45;5.90;99.90
41668;DHT22;27356;50.920;5.350;2023-02-01T08:40:11;6.20;99.90
41668;DHT22;27356;50.920;5.350;2023-02-01T08:42:40;6.30;99.90
41668;DHT22;27356;50.920;5.350;2023-02-01T08:45:21;6.30;99.90
41668;DHT22;27356;50.920;5.350;2023-02-01T08:47:46;6.30;99.90
41668;DHT22;27356;50.920;5.350;2023-02-01T08:50:14;6.30;99.90
41668;DHT22;27356;50.920;5.350;2023-02-01T08:52:40;6.50;99.90
41668;DHT22;27356;50.920;5.350;2023-02-01T08:55:06;6.50;99.90
41668;DHT22;27356;50.920;5.350;2023-02-01T08:57:33;6.60;99.90
41668;DHT22;27356;50.920;5.350;2023-02-01T08:59:58;6.50;99.90
41668;DHT22;27356;50.920;5.350;2023-02-01T09:02:25;6.50;99.90
41668;DHT22;27356;50.920;5.350;2023-02-01T09:04:51;6.50;99.90
41668;DHT22;27356;50.920;5.350;2023-02-01T09:07:17;6.50;99.90
41668;DHT22;27356;50.920;5.350;2023-02-01T09:09:44;6.50;99.90
41668;DHT22;27356;50.920;5.350;2023-02-01T09:12:10;6.50;99.90
41668;DHT22;27356;50.920;5.350;2023-02-01T09:14:36;6.50;99.90
41668;DHT22;27356;50.920;5.350;2023-02-01T09:17:05;6.60;99.90
41668;DHT22;27356;50.920;5.350;2023-02-01T09:19:34;6.60;99.90
41668;DHT22;27356;50.920;5.350;2023-02-01T09:21:59;6.50;99.90
41668;DHT22;27356;50.920;5.350;2023-02-01T09:24:25;6.60;99.90
41668;DHT22;27356;50.920;5.350;2023-02-01T09:26:54;6.60;99.90
41668;DHT22;27356;50.920;5.350;2023-02-01T09:29:22;6.60;99.90
41668;DHT22;27356;50.920;5.350;2023-02-01T09:31:48;6.60;99.90
41668;DHT22;27356;50.920;5.350;2023-02-01T09:34:14;6.60;99.90
41668;DHT22;27356;50.920;5.350;2023-02-01T09:36:39;6.80;99.90
41668;DHT22;27356;50.920;5.350;2023-02-01T09:39:05;6.80;99.90
41668;DHT22;27356;50.920;5.350;2023-02-01T09:44:47;7.00;99.90
41668;DHT22;27356;50.920;5.350;2023-02-01T09:47:17;7.10;99.90
41668;DHT22;27356;50.920;5.350;2023-02-01T09:50:15;7.00;99.90
41668;DHT22;27356;50.920;5.350;2023-02-01T09:52:59;7.00;99.90
41668;DHT22;27356;50.920;5.350;2023-02-01T09:55:43;7.00;99.90
41668;DHT22;27356;50.920;5.350;2023-02-01T09:58:32;6.80;99.90
41668;DHT22;27356;50.920;5.350;2023-02-01T10:01:03;6.70;99.90
41668;DHT22;27356;50.920;5.350;2023-02-01T10:03:34;6.80;99.90
41668;DHT22;27356;50.920;5.350;2023-02-01T10:20:16;7.40;99.90
41668;DHT22;27356;50.920;5.350;2023-02-01T10:22:46;7.30;99.90
41668;DHT22;27356;50.920;5.350;2023-02-01T10:25:43;7.30;99.90
41668;DHT22;27356;50.920;5.350;2023-02-01T10:28:15;7.50;99.90
41668;DHT22;27356;50.920;5.350;2023-02-01T10:30:46;7.60;99.90
41668;DHT22;27356;50.920;5.350;2023-02-01T10:33:21;7.60;99.90
41668;DHT22;27356;50.920;5.350;2023-02-01T10:35:58;7.70;99.90
41668;DHT22;27356;50.920;5.350;2023-02-01T10:38:30;7.70;99.90
41668;DHT22;27356;50.920;5.350;2023-02-01T10:41:02;7.90;99.90
41668;DHT22;27356;50.920;5.350;2023-02-01T10:43:29;8.00;99.90
41668;DHT22;27356;50.920;5.350;2023-02-01T10:45:56;8.00;99.90
41668;DHT22;27356;50.920;5.350;2023-02-01T10:48:23;8.10;99.90
41668;DHT22;27356;50.920;5.350;2023-02-01T10:50:53;8.10;99.90
41668;DHT22;27356;50.920;5.350;2023-02-01T10:55:49;8.10;99.90
41668;DHT22;27356;50.920;5.350;2023-02-01T11:01:09;8.30;99.90
41668;DHT22;27356;50.920;5.350;2023-02-01T11:06:44;8.50;99.90
41668;DHT22;27356;50.920;5.350;2023-02-01T11:12:01;8.60;99.90
41668;DHT22;27356;50.920;5.350;2023-02-01T11:14:35;8.70;99.90
41668;DHT22;27356;50.920;5.350;2023-02-01T11:17:17;8.90;99.90
41668;DHT22;27356;50.920;5.350;2023-02-01T11:19:57;9.00;99.90
41668;DHT22;27356;50.920;5.350;2023-02-01T11:22:25;9.20;99.90
41668;DHT22;27356;50.920;5.350;2023-02-01T11:24:52;9.30;99.90
41668;DHT22;27356;50.920;5.350;2023-02-01T11:27:20;9.50;99.90
41668;DHT22;27356;50.920;5.350;2023-02-01T11:29:50;9.60;99.90
41668;DHT22;27356;50.920;5.350;2023-02-01T11:32:19;9.70;99.90
41668;DHT22;27356;50.920;5.350;2023-02-01T11:34:46;9.80;99.90
41668;DHT22;27356;50.920;5.350;2023-02-01T11:37:23;9.90;99.90
41668;DHT22;27356;50.920;5.350;2023-02-01T11:39:58;10.00;99.90
41668;DHT22;27356;50.920;5.350;2023-02-01T11:42:25;10.00;99.90
41668;DHT22;27356;50.920;5.350;2023-02-01T11:45:18;9.90;99.90
41668;DHT22;27356;50.920;5.350;2023-02-01T11:47:44;9.70;99.90
41668;DHT22;27356;50.920;5.350;2023-02-01T11:50:22;9.70;99.90
41668;DHT22;27356;50.920;5.350;2023-02-01T11:55:50;9.80;99.90
41668;DHT22;27356;50.920;5.350;2023-02-01T12:06:55;10.20;99.90
41668;DHT22;27356;50.920;5.350;2023-02-01T12:20:22;9.60;99.90
41668;DHT22;27356;50.920;5.350;2023-02-01T12:25:57;9.50;99.90
41668;DHT22;27356;50.920;5.350;2023-02-01T12:36:14;9.60;99.90
41668;DHT22;27356;50.920;5.350;2023-02-01T12:52:42;9.60;99.90
41668;DHT22;27356;50.920;5.350;2023-02-01T12:55:35;9.40;99.90
41668;DHT22;27356;50.920;5.350;2023-02-01T12:58:12;9.40;99.90
41668;DHT22;27356;50.920;5.350;2023-02-01T13:01:00;9.30;99.90
41668;DHT22;27356;50.920;5.350;2023-02-01T13:06:18;9.20;99.90
41668;DHT22;27356;50.920;5.350;2023-02-01T13:08:56;9.20;99.90
41668;DHT22;27356;50.920;5.350;2023-02-01T13:11:41;9.20;99.90
41668;DHT22;27356;50.920;5.350;2023-02-01T13:17:05;9.30;99.90
41668;DHT22;27356;50.920;5.350;2023-02-01T13:19:53;9.30;99.90
41668;DHT22;27356;50.920;5.350;2023-02-01T13:22:32;9.30;99.90
41668;DHT22;27356;50.920;5.350;2023-02-01T13:25:05;9.30;99.90
41668;DHT22;27356;50.920;5.350;2023-02-01T13:27:38;9.30;99.90
41668;DHT22;27356;50.920;5.350;2023-02-01T13:30:23;9.30;99.90
41668;DHT22;27356;50.920;5.350;2023-02-01T13:38:34;9.20;99.90
41668;DHT22;27356;50.920;5.350;2023-02-01T13:43:35;9.20;99.90
41668;DHT22;27356;50.920;5.350;2023-02-01T13:46:09;9.20;99.90
41668;DHT22;27356;50.920;5.350;2023-02-01T13:48:58;9.40;99.90
41668;DHT22;27356;50.920;5.350;2023-02-01T13:54:00;9.40;99.90
41668;DHT22;27356;50.920;5.350;2023-02-01T13:56:26;9.40;99.90
41668;DHT22;27356;50.920;5.350;2023-02-01T13:58:52;9.40;99.90
41668;DHT22;27356;50.920;5.350;2023-02-01T14:03:59;9.50;99.90
41668;DHT22;27356;50.920;5.350;2023-02-01T14:09:18;9.60;99.90
41668;DHT22;27356;50.920;5.350;2023-02-01T14:11:53;9.60;99.90
41668;DHT22;27356;50.920;5.350;2023-02-01T14:21:55;9.50;99.90
41668;DHT22;27356;50.920;5.350;2023-02-01T14:24:29;9.70;99.90
41668;DHT22;27356;50.920;5.350;2023-02-01T14:27:39;9.70;99.90
41668;DHT22;27356;50.920;5.350;2023-02-01T14:29:58;9.70;99.90
41668;DHT22;27356;50.920;5.350;2023-02-01T14:33:00;9.60;99.90
41668;DHT22;27356;50.920;5.350;2023-02-01T14:35:25;9.50;99.90
41668;DHT22;27356;50.920;5.350;2023-02-01T14:37:53;9.60;99.90
41668;DHT22;27356;50.920;5.350;2023-02-01T14:40:27;9.60;99.90
41668;DHT22;27356;50.920;5.350;2023-02-01T14:42:54;9.70;99.90
41668;DHT22;27356;50.920;5.350;2023-02-01T14:50:50;9.70;99.90
41668;DHT22;27356;50.920;5.350;2023-02-01T14:53:21;9.70;99.90
41668;DHT22;27356;50.920;5.350;2023-02-01T14:56:04;9.70;99.90
41668;DHT22;27356;50.920;5.350;2023-02-01T15:01:05;9.60;99.90
41668;DHT22;27356;50.920;5.350;2023-02-01T15:08:54;9.60;99.90
41668;DHT22;27356;50.920;5.350;2023-02-01T15:11:21;9.50;99.90
41668;DHT22;27356;50.920;5.350;2023-02-01T15:13:52;9.60;99.90
41668;DHT22;27356;50.920;5.350;2023-02-01T15:16:21;9.60;99.90
41668;DHT22;27356;50.920;5.350;2023-02-01T15:18:48;9.70;99.90
41668;DHT22;27356;50.920;5.350;2023-02-01T15:21:32;9.70;99.90
41668;DHT22;27356;50.920;5.350;2023-02-01T15:24:19;9.60;99.90
41668;DHT22;27356;50.920;5.350;2023-02-01T15:26:45;9.60;99.90
41668;DHT22;27356;50.920;5.350;2023-02-01T15:29:12;9.50;99.90
41668;DHT22;27356;50.920;5.350;2023-02-01T15:31:46;9.50;99.90
41668;DHT22;27356;50.920;5.350;2023-02-01T15:34:13;9.40;99.90
41668;DHT22;27356;50.920;5.350;2023-02-01T15:36:40;9.30;99.90
41668;DHT22;27356;50.920;5.350;2023-02-01T15:39:23;9.30;99.90
41668;DHT22;27356;50.920;5.350;2023-02-01T15:41:54;9.30;99.90
41668;DHT22;27356;50.920;5.350;2023-02-01T15:44:42;9.30;99.90
41668;DHT22;27356;50.920;5.350;2023-02-01T15:47:26;9.30;99.90
41668;DHT22;27356;50.920;5.350;2023-02-01T15:49:55;9.40;99.90
41668;DHT22;27356;50.920;5.350;2023-02-01T15:52:36;9.40;99.90
41668;DHT22;27356;50.920;5.350;2023-02-01T15:55:17;9.30;99.90
41668;DHT22;27356;50.920;5.350;2023-02-01T15:57:44;9.30;99.90
41668;DHT22;27356;50.920;5.350;2023-02-01T16:00:26;9.20;99.90
41668;DHT22;27356;50.920;5.350;2023-02-01T16:03:00;9.20;99.90
41668;DHT22;27356;50.920;5.350;2023-02-01T16:05:29;9.00;99.90
41668;DHT22;27356;50.920;5.350;2023-02-01T16:08:01;9.10;99.90
41668;DHT22;27356;50.920;5.350;2023-02-01T16:10:29;9.10;99.90
41668;DHT22;27356;50.920;5.350;2023-02-01T16:12:55;9.00;99.90
41668;DHT22;27356;50.920;5.350;2023-02-01T16:15:26;8.90;99.90
41668;DHT22;27356;50.920;5.350;2023-02-01T16:17:52;8.90;99.90
41668;DHT22;27356;50.920;5.350;2023-02-01T16:20:18;8.90;99.90
41668;DHT22;27356;50.920;5.350;2023-02-01T16:22:43;8.80;99.90
41668;DHT22;27356;50.920;5.350;2023-02-01T16:25:16;8.90;99.90
41668;DHT22;27356;50.920;5.350;2023-02-01T16:27:49;8.90;99.90
41668;DHT22;27356;50.920;5.350;2023-02-01T16:30:16;9.00;99.90
41668;DHT22;27356;50.920;5.350;2023-02-01T16:32:45;8.80;99.90
41668;DHT22;27356;50.920;5.350;2023-02-01T16:35:27;8.80;99.90
41668;DHT22;27356;50.920;5.350;2023-02-01T16:37:57;8.80;99.90
41668;DHT22;27356;50.920;5.350;2023-02-01T16:40:26;8.80;99.90
41668;DHT22;27356;50.920;5.350;2023-02-01T16:42:53;8.90;99.90
41668;DHT22;27356;50.920;5.350;2023-02-01T16:45:22;9.00;99.90
41668;DHT22;27356;50.920;5.350;2023-02-01T16:47:53;9.10;99.90
41668;DHT22;27356;50.920;5.350;2023-02-01T16:52:51;9.00;99.90
41668;DHT22;27356;50.920;5.350;2023-02-01T16:55:19;9.00;99.90
41668;DHT22;27356;50.920;5.350;2023-02-01T16:57:49;9.10;99.90
41668;DHT22;27356;50.920;5.350;2023-02-01T17:00:16;9.00;99.90
41668;DHT22;27356;50.920;5.350;2023-02-01T17:02:42;8.90;99.90
41668;DHT22;27356;50.920;5.350;2023-02-01T17:05:09;8.80;99.90
41668;DHT22;27356;50.920;5.350;2023-02-01T17:07:36;8.80;99.90
41668;DHT22;27356;50.920;5.350;2023-02-01T17:10:04;8.70;99.90
41668;DHT22;27356;50.920;5.350;2023-02-01T17:12:32;8.80;99.90
41668;DHT22;27356;50.920;5.350;2023-02-01T17:14:59;8.80;99.90
41668;DHT22;27356;50.920;5.350;2023-02-01T17:17:31;8.70;99.90
41668;DHT22;27356;50.920;5.350;2023-02-01T17:19:58;8.70;99.90
41668;DHT22;27356;50.920;5.350;2023-02-01T17:22:23;8.70;99.90
41668;DHT22;27356;50.920;5.350;2023-02-01T17:24:49;8.80;99.90
41668;DHT22;27356;50.920;5.350;2023-02-01T17:27:16;8.70;99.90
41668;DHT22;27356;50.920;5.350;2023-02-01T17:29:42;8.60;99.90
41668;DHT22;27356;50.920;5.350;2023-02-01T17:32:17;8.60;99.90
41668;DHT22;27356;50.920;5.350;2023-02-01T17:34:44;8.60;99.90
41668;DHT22;27356;50.920;5.350;2023-02-01T17:37:26;8.60;99.90
41668;DHT22;27356;50.920;5.350;2023-02-01T17:39:52;8.60;99.90
41668;DHT22;27356;50.920;5.350;2023-02-01T17:42:21;8.40;99.90
41668;DHT22;27356;50.920;5.350;2023-02-01T17:44:48;8.40;99.90
41668;DHT22;27356;50.920;5.350;2023-02-01T17:47:16;8.40;99.90
41668;DHT22;27356;50.920;5.350;2023-02-01T17:49:42;8.40;99.90
41668;DHT22;27356;50.920;5.350;2023-02-01T17:52:14;8.40;99.90
41668;DHT22;27356;50.920;5.350;2023-02-01T17:54:41;8.40;99.90
41668;DHT22;27356;50.920;5.350;2023-02-01T17:57:14;8.40;99.90
41668;DHT22;27356;50.920;5.350;2023-02-01T17:59:40;8.50;99.90
41668;DHT22;27356;50.920;5.350;2023-02-01T18:02:25;8.60;99.90
41668;DHT22;27356;50.920;5.350;2023-02-01T18:04:51;8.50;99.90
41668;DHT22;27356;50.920;5.350;2023-02-01T18:07:17;8.40;99.90
41668;DHT22;27356;50.920;5.350;2023-02-01T18:09:43;8.40;99.90
41668;DHT22;27356;50.920;5.350;2023-02-01T18:12:29;8.40;99.90
41668;DHT22;27356;50.920;5.350;2023-02-01T18:14:58;8.30;99.90
41668;DHT22;27356;50.920;5.350;2023-02-01T18:17:23;8.40;99.90
41668;DHT22;27356;50.920;5.350;2023-02-01T18:19:49;8.40;99.90
41668;DHT22;27356;50.920;5.350;2023-02-01T18:22:20;8.40;99.90
41668;DHT22;27356;50.920;5.350;2023-02-01T18:24:47;8.30;99.90
41668;DHT22;27356;50.920;5.350;2023-02-01T18:27:13;8.50;99.90
41668;DHT22;27356;50.920;5.350;2023-02-01T18:29:38;8.50;99.90
41668;DHT22;27356;50.920;5.350;2023-02-01T18:32:04;8.50;99.90
41668;DHT22;27356;50.920;5.350;2023-02-01T18:34:30;8.40;99.90
41668;DHT22;27356;50.920;5.350;2023-02-01T18:36:56;8.50;99.90